createdAt,value
2022-11-24T00:00:41.700Z,82.97
2022-11-24T00:05:49.383Z,1.27
2022-11-24T00:10:56.852Z,9.77
2022-11-24T00:16:06.648Z,1.47
2022-11-24T00:21:15.478Z,2.80
2022-11-24T00:26:25.558Z,1.30
2022-11-24T00:31:39.172Z,2.93
2022-11-24T00:36:50.945Z,8.93
2022-11-24T00:41:58.137Z,7.23
2022-11-24T00:47:06.044Z,2.63
2022-11-24T00:52:13.709Z,1.87
2022-11-24T00:57:21.058Z,1.73
2022-11-24T01:02:28.595Z,16.50
2022-11-24T01:07:36.134Z,7.40
2022-11-24T01:12:43.108Z,131.10
2022-11-24T01:17:49.996Z,10.83
2022-11-24T01:22:57.054Z,64.43
2022-11-24T01:28:04.016Z,73.97
2022-11-24T01:33:16.068Z,81.00
2022-11-24T01:38:23.362Z,136.40
2022-11-24T01:43:30.974Z,107.60
2022-11-24T01:48:43.486Z,7.93
2022-11-24T01:53:53.458Z,102.73
2022-11-24T01:59:03.033Z,140.97
2022-11-24T02:04:13.570Z,146.13
2022-11-24T02:09:26.900Z,14.37
2022-11-24T02:14:35.698Z,38.47
2022-11-24T02:19:45.736Z,23.27
2022-11-24T02:24:56.113Z,39.63
2022-11-24T02:30:03.481Z,24.87
2022-11-24T02:35:12.015Z,55.07
2022-11-24T02:40:23.446Z,28.07
2022-11-24T02:45:32.304Z,27.30
2022-11-24T02:50:42.765Z,33.57
2022-11-24T02:55:49.798Z,42.63
2022-11-24T03:00:57.671Z,75.63
2022-11-24T03:06:04.897Z,51.47
2022-11-24T03:11:13.436Z,18.20
2022-11-24T03:16:25.914Z,18.27
2022-11-24T03:21:33.594Z,22.30
2022-11-24T03:26:42.332Z,25.73
2022-11-24T03:31:49.344Z,16.20
2022-11-24T03:36:56.398Z,19.10
2022-11-24T03:42:03.837Z,15.20
2022-11-24T03:47:12.842Z,11.13
2022-11-24T03:52:20.116Z,29.00
2022-11-24T03:57:27.108Z,9.30
2022-11-24T04:02:34.193Z,30.20
2022-11-24T04:07:41.622Z,33.10
2022-11-24T04:12:48.918Z,18.67
2022-11-24T04:17:58.341Z,25.50
2022-11-24T04:23:06.360Z,25.13
2022-11-24T04:28:13.541Z,23.37
2022-11-24T04:33:25.756Z,27.60
2022-11-24T04:39:24.932Z,40.70
2022-11-24T04:43:41.640Z,24.13
2022-11-24T04:48:48.637Z,27.83
2022-11-24T04:53:55.811Z,12.57
2022-11-24T04:59:07.966Z,17.57
2022-11-24T05:04:14.599Z,6.53
2022-11-24T05:09:21.805Z,14.47
2022-11-24T05:14:30.327Z,13.37
2022-11-24T05:19:37.452Z,9.70
2022-11-24T05:24:44.700Z,16.33
2022-11-24T05:29:51.856Z,7.97
2022-11-24T05:35:01.130Z,2.77
2022-11-24T05:40:08.866Z,6.77
2022-11-24T05:45:19.012Z,5.03
2022-11-24T05:50:26.285Z,3.03
2022-11-24T05:55:34.079Z,6.27
2022-11-24T06:00:41.308Z,5.87
2022-11-24T06:05:49.915Z,2.37
2022-11-24T06:11:00.086Z,9.07
2022-11-24T06:16:12.047Z,3.77
2022-11-24T06:21:19.420Z,6.33
2022-11-24T06:26:26.537Z,4.70
2022-11-24T06:31:33.641Z,0.40
2022-11-24T06:36:41.170Z,4.87
2022-11-24T06:41:49.803Z,3.33
2022-11-24T06:46:56.753Z,0.80
2022-11-24T06:52:03.734Z,3.13
2022-11-24T06:57:10.459Z,0.67
2022-11-24T07:02:17.414Z,0.80
2022-11-24T07:07:24.362Z,1.07
2022-11-24T07:12:34.256Z,5.03
2022-11-24T07:17:41.970Z,1.57
2022-11-24T07:22:48.925Z,1.57
2022-11-24T07:27:58.861Z,1.40
2022-11-24T07:33:06.309Z,1.23
2022-11-24T07:38:13.174Z,1.47
2022-11-24T07:43:20.485Z,1.20
2022-11-24T07:48:28.832Z,2.73
2022-11-24T07:53:36.664Z,1.10
2022-11-24T07:58:45.088Z,0.50
2022-11-24T08:03:52.073Z,1.73
2022-11-24T08:09:00.109Z,2.17
2022-11-24T08:14:07.310Z,2.43
2022-11-24T08:19:14.469Z,3.60
2022-11-24T08:24:21.257Z,1.40
2022-11-24T08:29:30.264Z,2.57
2022-11-24T08:34:37.694Z,3.23
2022-11-24T08:39:44.613Z,1.73
2022-11-24T08:44:58.649Z,1.30
2022-11-24T08:50:00.380Z,1.03
2022-11-24T08:55:07.646Z,1.50
2022-11-24T09:00:16.832Z,1.57
2022-11-24T09:05:50.771Z,2.70
2022-11-24T09:10:32.636Z,1.27
2022-11-24T09:15:39.627Z,2.53
2022-11-24T09:20:46.687Z,0.57
2022-11-24T09:25:53.486Z,0.80
2022-11-24T09:31:02.710Z,1.97
2022-11-24T09:36:10.582Z,1.37
2022-11-24T09:41:18.581Z,0.80
2022-11-24T09:46:26.549Z,1.07
2022-11-24T09:51:35.257Z,0.70
2022-11-24T09:56:44.014Z,2.20
2022-11-24T10:01:52.686Z,0.57
2022-11-24T10:06:59.011Z,0.87
2022-11-24T10:12:09.091Z,1.07
2022-11-24T10:17:19.154Z,1.33
2022-11-24T10:22:27.251Z,0.83
2022-11-24T10:27:37.043Z,1.33
2022-11-24T10:32:47.317Z,0.60
2022-11-24T10:37:56.638Z,1.10
2022-11-24T10:43:05.073Z,1.60
2022-11-24T10:48:15.002Z,1.57
2022-11-24T10:53:23.492Z,1.43
2022-11-24T10:58:37.422Z,1.70
2022-11-24T11:03:43.157Z,2.13
2022-11-24T11:08:50.027Z,1.97
2022-11-24T11:14:03.865Z,0.80
2022-11-24T11:19:40.890Z,1.57
2022-11-24T11:24:20.561Z,1.17
2022-11-24T11:34:38.998Z,2.03
2022-11-24T11:39:49.249Z,1.97
2022-11-24T11:44:59.474Z,2.73
2022-11-24T11:50:09.308Z,1.77
2022-11-24T11:55:19.251Z,3.73
2022-11-24T12:00:26.273Z,4.00
2022-11-24T12:05:36.159Z,1.77
2022-11-24T12:10:42.717Z,1.30
2022-11-24T12:15:52.742Z,1.60
2022-11-24T12:21:02.666Z,0.93
2022-11-24T12:26:13.002Z,0.90
2022-11-24T12:31:22.928Z,1.87
2022-11-24T12:36:34.444Z,2.00
2022-11-24T12:41:45.135Z,1.93
2022-11-24T12:46:55.165Z,1.97
2022-11-24T12:52:05.225Z,1.07
2022-11-24T12:57:15.579Z,0.90
2022-11-24T13:02:25.010Z,0.97
2022-11-24T13:07:35.454Z,2.17
2022-11-24T13:12:45.540Z,1.93
2022-11-24T13:18:10.254Z,1.73
2022-11-24T13:23:13.552Z,1.23
2022-11-24T13:28:53.885Z,1.43
2022-11-24T13:33:37.186Z,1.33
2022-11-24T13:38:48.454Z,0.57
2022-11-24T13:44:02.015Z,1.70
2022-11-24T13:49:13.592Z,1.23
2022-11-24T13:54:22.013Z,2.77
2022-11-24T13:59:34.137Z,1.53
2022-11-24T14:04:45.833Z,0.90
2022-11-24T14:09:54.547Z,1.37
2022-11-24T14:15:05.961Z,0.90
2022-11-24T14:20:19.349Z,0.90
2022-11-24T14:25:30.561Z,1.80
2022-11-24T14:30:39.124Z,3.00
2022-11-24T14:35:49.879Z,2.47
2022-11-24T14:41:00.848Z,2.27
2022-11-24T14:46:12.536Z,2.93
2022-11-24T14:51:21.426Z,0.67
2022-11-24T14:56:34.160Z,0.60
2022-11-24T15:01:42.005Z,0.73
2022-11-24T15:06:52.038Z,2.77
2022-11-24T15:12:00.882Z,2.63
2022-11-24T15:17:08.215Z,1.53
2022-11-24T15:22:18.034Z,1.43
2022-11-24T15:27:24.917Z,1.20
2022-11-24T15:32:31.729Z,0.50
2022-11-24T15:37:38.576Z,1.83
2022-11-24T15:42:48.343Z,0.50
2022-11-24T15:47:55.296Z,1.37
2022-11-24T15:53:02.344Z,1.40
2022-11-24T15:58:11.789Z,0.50
2022-11-24T16:03:45.638Z,1.67
2022-11-24T16:08:28.933Z,1.23
2022-11-24T16:13:37.806Z,0.70
2022-11-24T16:18:46.241Z,0.80
2022-11-24T16:23:53.760Z,1.70
2022-11-24T16:29:01.347Z,0.73
2022-11-24T16:34:08.719Z,1.43
2022-11-24T16:39:15.927Z,0.60
2022-11-24T16:44:23.024Z,0.90
2022-11-24T16:49:31.905Z,1.90
2022-11-24T16:54:39.172Z,2.03
2022-11-24T16:59:46.433Z,1.53
2022-11-24T17:04:53.573Z,1.23
2022-11-24T17:10:00.862Z,1.10
2022-11-24T17:20:17.144Z,0.60
2022-11-24T17:25:24.718Z,1.13
2022-11-24T17:30:31.694Z,1.53
2022-11-24T17:35:39.306Z,0.60
2022-11-24T17:40:48.506Z,1.93
2022-11-24T17:45:57.650Z,0.97
2022-11-24T17:51:09.250Z,0.60
2022-11-24T17:56:19.187Z,1.10
2022-11-24T18:01:28.907Z,0.60
2022-11-24T18:06:36.786Z,7.80
2022-11-24T18:11:43.791Z,2.03
2022-11-24T18:16:50.830Z,2.47
2022-11-24T18:21:58.140Z,1.50
2022-11-24T18:27:05.310Z,2.00
2022-11-24T18:32:12.186Z,1.50
2022-11-24T18:37:19.296Z,0.87
2022-11-24T18:42:26.238Z,1.10
2022-11-24T18:47:34.505Z,0.77
2022-11-24T18:52:41.554Z,0.80
2022-11-24T18:57:48.691Z,1.70
2022-11-24T19:02:56.480Z,0.77
2022-11-24T19:08:03.576Z,2.30
2022-11-24T19:13:10.509Z,0.40
2022-11-24T19:18:17.990Z,2.60
2022-11-24T19:23:25.777Z,0.93
2022-11-24T19:28:33.783Z,0.60
2022-11-24T19:33:42.470Z,1.43
2022-11-24T19:38:51.711Z,0.93
2022-11-24T19:43:59.705Z,1.80
2022-11-24T19:49:09.064Z,0.57
2022-11-24T19:54:16.214Z,1.73
2022-11-24T19:59:24.192Z,0.43
2022-11-24T20:04:33.352Z,2.57
2022-11-24T20:09:40.464Z,2.50
2022-11-24T20:14:47.763Z,8.63
2022-11-24T20:19:54.903Z,1.27
2022-11-24T20:25:01.866Z,0.50
2022-11-24T20:30:09.628Z,19.83
2022-11-24T20:35:18.381Z,7.07
2022-11-24T20:40:25.217Z,0.80
2022-11-24T20:45:32.480Z,2.33
2022-11-24T20:50:39.478Z,1.70
2022-11-24T20:55:46.452Z,19.23
2022-11-24T21:00:53.954Z,4.20
2022-11-24T21:06:01.178Z,9.87
2022-11-24T21:11:10.585Z,0.73
2022-11-24T21:16:18.692Z,1.30
2022-11-24T21:21:28.840Z,0.70
2022-11-24T21:26:38.718Z,1.50
2022-11-24T21:31:46.233Z,1.10
2022-11-24T21:36:53.472Z,0.97
2022-11-24T21:42:00.682Z,1.47
2022-11-24T21:47:07.823Z,3.73
2022-11-24T21:52:14.918Z,3.40
2022-11-24T21:57:23.268Z,1.37
2022-11-24T22:02:30.806Z,2.23
2022-11-24T22:07:38.053Z,0.80
2022-11-24T22:12:44.949Z,0.50
2022-11-24T22:17:51.903Z,2.00
2022-11-24T22:22:59.149Z,0.80
2022-11-24T22:28:05.984Z,0.70
2022-11-24T22:33:13.169Z,0.60
2022-11-24T22:38:20.109Z,0.40
2022-11-24T22:43:26.958Z,0.40
2022-11-24T22:48:34.536Z,0.40
2022-11-24T22:53:42.495Z,0.57
2022-11-24T22:58:50.200Z,0.40
2022-11-24T23:03:57.779Z,0.63
2022-11-24T23:09:06.091Z,0.50
2022-11-24T23:14:15.841Z,0.40
2022-11-24T23:19:22.765Z,0.73
2022-11-24T23:24:30.227Z,0.40
2022-11-24T23:29:37.272Z,1.13
2022-11-24T23:34:45.551Z,1.47
2022-11-24T23:39:53.512Z,0.40
2022-11-24T23:45:00.428Z,0.80
2022-11-24T23:50:09.479Z,1.33
2022-11-24T23:55:16.554Z,0.40
